Time;durP1;ratioP1;P1;durP2;ratioP2;P2;SDS_P1;SDS_P2;PMS_P1;PMS_P2;Temp;Humidity;BMP_temperature;BMP_pressure;BME280_temperature;BME280_humidity;BME280_pressure;Samples;Min_cycle;Max_cycle;Signal;HPM_P1;HPM_P2
2021/07/03 00:00:09;;;;;;;5.55;2.75;;;;;;;22.46;49.15;97183.16;5054760;28;20033;-60
2021/07/03 00:02:35;;;;;;;7.03;2.78;;;;;;;22.60;48.33;97183.22;5055634;28;20025;-60
2021/07/03 00:05:00;;;;;;;7.72;2.55;;;;;;;22.54;48.05;97191.22;5056058;28;20029;-60
2021/07/03 00:07:26;;;;;;;5.20;2.70;;;;;;;22.78;47.09;97180.75;5055805;28;20081;-59
2021/07/03 00:09:51;;;;;;;5.22;2.55;;;;;;;22.95;46.70;97183.16;5056303;28;20492;-60
2021/07/03 00:12:16;;;;;;;4.57;2.60;;;;;;;22.78;46.43;97191.72;5056203;28;20025;-60
2021/07/03 00:14:42;;;;;;;4.00;2.30;;;;;;;22.92;46.10;97189.06;5055932;28;20473;-60
2021/07/03 00:17:07;;;;;;;6.50;2.63;;;;;;;22.93;46.15;97188.84;5054736;28;20461;-60
2021/07/03 00:19:33;;;;;;;7.50;2.80;;;;;;;23.03;46.15;97189.28;5056109;28;20137;-60
2021/07/03 00:21:58;;;;;;;10.65;3.33;;;;;;;23.01;46.70;97199.63;5054865;28;20032;-60
2021/07/03 00:24:23;;;;;;;9.90;2.95;;;;;;;23.00;46.75;97202.56;5055846;28;20101;-61
2021/07/03 00:26:49;;;;;;;5.00;3.00;;;;;;;22.84;48.16;97201.03;5055945;28;20029;-60
2021/07/03 00:29:14;;;;;;;6.78;3.03;;;;;;;22.89;48.17;97207.59;5056146;28;20033;-60
2021/07/03 00:31:40;;;;;;;7.43;2.95;;;;;;;23.07;48.26;97217.13;5055963;28;20029;-60
2021/07/03 00:34:05;;;;;;;9.48;3.13;;;;;;;22.80;49.65;97211.56;5054893;28;20488;-59
2021/07/03 00:36:31;;;;;;;9.35;3.20;;;;;;;22.80;49.99;97216.22;5055938;28;20496;-59
2021/07/03 00:38:56;;;;;;;10.98;3.08;;;;;;;22.82;50.40;97216.84;5054797;28;20064;-59
2021/07/03 00:41:21;;;;;;;10.30;3.47;;;;;;;22.77;50.88;97222.94;5054765;28;20021;-59
2021/07/03 00:43:47;;;;;;;10.55;3.10;;;;;;;22.77;50.95;97222.06;5055294;28;20052;-60
2021/07/03 00:46:13;;;;;;;7.97;3.20;;;;;;;22.68;51.41;97215.94;5055550;28;20488;-59
2021/07/03 00:48:39;;;;;;;6.75;3.00;;;;;;;22.56;51.67;97211.03;5055377;28;20025;-59
2021/07/03 00:51:04;;;;;;;7.68;3.20;;;;;;;22.63;51.74;97208.31;5054100;28;20441;-59
2021/07/03 00:53:30;;;;;;;6.47;3.15;;;;;;;22.60;51.92;97205.16;5055184;28;20119;-59
2021/07/03 00:55:56;;;;;;;9.00;3.15;;;;;;;22.64;51.71;97203.69;5054120;28;20113;-59
2021/07/03 00:58:21;;;;;;;8.55;3.00;;;;;;;22.63;51.96;97200.09;5054083;28;20036;-59
2021/07/03 01:00:47;;;;;;;7.53;3.30;;;;;;;22.64;52.18;97206.44;5055337;28;20028;-59
2021/07/03 01:03:12;;;;;;;8.35;3.13;;;;;;;22.64;52.45;97207.28;5055571;28;20526;-60
2021/07/03 01:05:38;;;;;;;7.32;3.22;;;;;;;22.74;51.97;97199.53;5053768;28;20039;-60
2021/07/03 01:08:03;;;;;;;6.97;3.03;;;;;;;22.66;52.50;97204.31;5055148;28;20040;-59
2021/07/03 01:10:30;;;;;;;7.90;3.40;;;;;;;22.61;52.78;97201.34;5054864;28;20032;-60
2021/07/03 01:12:56;;;;;;;8.07;3.10;;;;;;;22.56;53.33;97205.53;5055331;28;20115;-60
2021/07/03 01:15:22;;;;;;;8.73;3.20;;;;;;;22.59;53.37;97206.19;5054006;28;20547;-60
2021/07/03 01:17:47;;;;;;;8.88;2.90;;;;;;;22.80;52.46;97211.56;5048604;28;20025;-60
2021/07/03 01:20:14;;;;;;;6.63;3.00;;;;;;;22.72;53.12;97217.22;5041698;28;20083;-59
2021/07/03 01:22:42;;;;;;;8.75;3.25;;;;;;;22.68;52.94;97219.53;5035375;28;20025;-59
2021/07/03 01:25:08;;;;;;;9.40;2.92;;;;;;;22.69;52.98;97217.63;5050507;28;20141;-59
2021/07/03 01:27:34;;;;;;;6.70;3.17;;;;;;;22.67;53.05;97215.06;5053512;28;20033;-59
2021/07/03 01:30:00;;;;;;;6.60;2.70;;;;;;;22.74;52.96;97212.38;5054677;28;20021;-60
2021/07/03 01:32:26;;;;;;;7.55;2.60;;;;;;;22.70;53.35;97216.56;5055017;28;20036;-60
2021/07/03 01:34:51;;;;;;;5.55;2.63;;;;;;;22.60;53.83;97218.88;5053333;28;20533;-60
2021/07/03 01:37:17;;;;;;;5.88;2.70;;;;;;;22.60;53.77;97222.44;5053985;28;20021;-59
2021/07/03 01:39:42;;;;;;;5.72;2.78;;;;;;;22.56;53.54;97219.25;5054739;28;20028;-59
2021/07/03 01:42:08;;;;;;;8.60;2.85;;;;;;;22.59;53.76;97206.19;5036368;28;20053;-59
2021/07/03 01:44:34;;;;;;;6.65;2.80;;;;;;;22.51;53.74;97208.03;5033444;28;20060;-59
2021/07/03 01:47:01;;;;;;;6.63;2.47;;;;;;;22.57;53.64;97209.16;5034413;28;20104;-59
2021/07/03 01:49:28;;;;;;;6.25;2.60;;;;;;;22.68;53.30;97199.50;5033491;28;20032;-60
2021/07/03 01:51:54;;;;;;;6.65;2.75;;;;;;;22.60;53.54;97208.72;5034516;28;20497;-59
2021/07/03 01:54:20;;;;;;;6.65;2.75;;;;;;;22.59;53.69;97211.69;5034295;28;20092;-59
2021/07/03 01:56:57;;;;;;;6.97;2.60;;;;;;;22.59;53.63;97208.94;5033343;28;20048;-59
2021/07/03 01:59:23;;;;;;;6.22;2.53;;;;;;;22.54;53.76;97210.41;5034529;28;20025;-60
2021/07/03 02:01:48;;;;;;;6.03;2.42;;;;;;;22.64;53.41;97203.69;5033355;28;20030;-61
2021/07/03 02:04:13;;;;;;;6.03;2.42;;;;;;;22.65;53.73;97205.38;5037290;28;20041;-60
2021/07/03 02:06:39;;;;;;;8.00;2.65;;;;;;;22.69;53.55;97201.19;5054555;28;20025;-59
2021/07/03 02:09:06;;;;;;;5.90;2.50;;;;;;;22.55;53.93;97197.53;5053986;28;20051;-59
2021/07/03 02:11:31;;;;;;;5.32;2.28;;;;;;;22.59;53.85;97195.25;5053920;28;20037;-60
2021/07/03 02:13:57;;;;;;;6.63;2.50;;;;;;;22.62;53.78;97194.81;5045968;28;20041;-59
2021/07/03 02:16:22;;;;;;;6.97;2.40;;;;;;;22.52;53.97;97190.56;5033957;28;20032;-59
2021/07/03 02:18:48;;;;;;;6.45;2.10;;;;;;;22.49;54.17;97193.72;5033870;28;20040;-60
2021/07/03 02:21:13;;;;;;;4.43;2.40;;;;;;;22.53;53.88;97208.69;5033015;28;20032;-60
2021/07/03 02:23:39;;;;;;;4.57;2.20;;;;;;;22.54;53.91;97198.56;5033958;28;20037;-59
2021/07/03 02:26:04;;;;;;;8.88;2.60;;;;;;;22.50;53.97;97209.13;5033772;28;20030;-60
2021/07/03 02:28:29;;;;;;;6.57;2.30;;;;;;;22.45;54.04;97211.63;5032612;28;20032;-59
2021/07/03 02:30:55;;;;;;;5.10;2.58;;;;;;;22.50;53.94;97206.38;5033829;28;20060;-59
2021/07/03 02:33:20;;;;;;;8.52;2.22;;;;;;;22.65;53.26;97206.22;5033553;28;20021;-59
2021/07/03 02:35:46;;;;;;;13.40;2.55;;;;;;;22.62;53.64;97200.31;5033905;28;20125;-59
2021/07/03 02:38:11;;;;;;;4.45;2.40;;;;;;;22.52;53.76;97196.03;5033571;28;20025;-59
2021/07/03 02:40:36;;;;;;;7.88;2.55;;;;;;;22.47;53.75;97197.69;5033868;28;20021;-59
2021/07/03 02:43:02;;;;;;;6.28;2.50;;;;;;;22.51;53.65;97208.03;5033279;28;20065;-60
2021/07/03 02:45:27;;;;;;;4.65;2.55;;;;;;;22.53;53.92;97197.75;5032197;28;20509;-59
2021/07/03 02:47:52;;;;;;;4.88;2.30;;;;;;;22.40;54.02;97192.19;5033788;28;20078;-59
2021/07/03 02:50:19;;;;;;;5.53;2.33;;;;;;;22.49;53.67;97185.50;5033469;28;20497;-59
2021/07/03 02:52:45;;;;;;;6.78;2.30;;;;;;;22.50;53.69;97200.91;5033694;28;20018;-59
2021/07/03 02:55:11;;;;;;;5.78;2.50;;;;;;;22.44;53.81;97190.72;5033448;28;20024;-59
2021/07/03 02:57:37;;;;;;;8.70;2.47;;;;;;;22.44;53.68;97190.72;5033612;28;20030;-59
2021/07/03 03:00:13;;;;;;;9.70;2.47;;;;;;;22.51;53.17;97194.34;5033466;28;20072;-60
2021/07/03 03:02:38;;;;;;;4.55;2.40;;;;;;;22.45;53.45;97194.31;5033857;28;20022;-60
2021/07/03 03:05:09;;;;;;;9.93;2.67;;;;;;;22.39;53.57;97199.56;5032247;28;20039;-60
2021/07/03 03:07:36;;;;;;;4.47;2.50;;;;;;;22.48;53.13;97205.72;5033048;28;20465;-59
2021/07/03 03:10:02;;;;;;;5.68;2.42;;;;;;;22.55;52.88;97211.22;5032379;28;20108;-60
2021/07/03 03:12:28;;;;;;;7.47;2.50;;;;;;;22.48;53.22;97215.84;5033074;28;20033;-60
2021/07/03 03:14:53;;;;;;;7.95;3.00;;;;;;;22.37;53.60;97215.34;5032070;28;20040;-59
2021/07/03 03:17:18;;;;;;;6.10;2.25;;;;;;;22.39;53.70;97224.22;5033636;28;20036;-60
2021/07/03 03:19:44;;;;;;;5.45;2.35;;;;;;;22.42;53.71;97219.38;5031722;28;20061;-59
2021/07/03 03:22:09;;;;;;;6.88;2.28;;;;;;;22.46;53.49;97232.50;5052001;28;20021;-60
2021/07/03 03:24:34;;;;;;;4.28;2.30;;;;;;;22.39;53.86;97226.97;5052117;28;20052;-60
2021/07/03 03:27:00;;;;;;;5.50;2.20;;;;;;;22.35;54.20;97233.88;5053090;28;20099;-59
2021/07/03 03:29:25;;;;;;;7.80;2.65;;;;;;;22.31;54.01;97226.25;5052730;28;20029;-59
2021/07/03 03:31:51;;;;;;;8.75;2.47;;;;;;;22.24;54.17;97218.81;5051240;28;20047;-59
2021/07/03 03:34:16;;;;;;;9.27;2.40;;;;;;;22.20;54.41;97223.00;5056312;28;20491;-59
2021/07/03 03:36:41;;;;;;;4.78;2.30;;;;;;;22.05;54.84;97217.63;5056903;28;20442;-59
2021/07/03 03:39:07;;;;;;;6.55;2.40;;;;;;;22.13;54.32;97213.03;5056813;28;20025;-60
2021/07/03 03:41:32;;;;;;;7.18;2.22;;;;;;;22.16;54.11;97208.03;5056587;28;20028;-59
2021/07/03 03:43:58;;;;;;;5.55;2.20;;;;;;;22.18;54.48;97208.69;5056263;28;20504;-59
2021/07/03 03:46:24;;;;;;;6.70;2.50;;;;;;;22.03;54.65;97207.94;5056546;28;20040;-60
2021/07/03 03:48:49;;;;;;;6.00;2.42;;;;;;;22.10;54.36;97202.50;5056616;28;20108;-59
2021/07/03 03:51:15;;;;;;;5.13;2.38;;;;;;;22.06;54.45;97205.66;5056633;28;20055;-59
2021/07/03 03:53:40;;;;;;;5.60;2.10;;;;;;;22.26;54.00;97221.38;5055118;28;20032;-59
2021/07/03 03:56:06;;;;;;;9.35;2.47;;;;;;;22.11;54.08;97223.38;5054860;28;20075;-60
2021/07/03 03:58:31;;;;;;;10.32;2.35;;;;;;;22.20;54.16;97231.22;5056333;28;20025;-60
2021/07/03 04:00:56;;;;;;;3.60;2.20;;;;;;;22.13;54.49;97227.59;5056466;28;20025;-59
2021/07/03 04:03:22;;;;;;;9.18;2.50;;;;;;;22.04;54.58;97231.53;5055001;28;20056;-60
2021/07/03 04:05:47;;;;;;;5.10;2.10;;;;;;;22.23;53.99;97236.31;5050086;28;20040;-60
2021/07/03 04:08:12;;;;;;;6.40;2.45;;;;;;;22.18;54.19;97238.81;5055462;28;20025;-59
2021/07/03 04:10:39;;;;;;;7.05;2.90;;;;;;;22.21;54.34;97237.56;5055891;28;20029;-60
2021/07/03 04:13:04;;;;;;;3.67;2.30;;;;;;;22.12;54.59;97238.75;5056045;28;20068;-59
2021/07/03 04:15:30;;;;;;;6.35;2.50;;;;;;;22.08;54.60;97224.63;5055726;28;20554;-60
2021/07/03 04:17:55;;;;;;;7.22;2.55;;;;;;;22.04;54.93;97240.59;5056529;28;20025;-59
2021/07/03 04:20:21;;;;;;;6.05;2.63;;;;;;;22.09;54.81;97245.47;5056420;28;20036;-59
2021/07/03 04:22:47;;;;;;;3.28;2.58;;;;;;;22.08;54.36;97244.63;5055977;28;20473;-59
2021/07/03 04:25:15;;;;;;;8.63;2.53;;;;;;;22.10;54.66;97249.91;5054579;28;20040;-59
2021/07/03 04:27:43;;;;;;;6.18;2.50;;;;;;;22.18;54.95;97254.38;5056385;28;20036;-59
2021/07/03 04:30:10;;;;;;;8.52;2.40;;;;;;;22.21;54.09;97243.88;5056133;28;20036;-59
2021/07/03 04:32:35;;;;;;;3.30;2.13;;;;;;;22.18;54.22;97241.53;5054823;28;20111;-59
2021/07/03 04:35:05;;;;;;;4.40;2.42;;;;;;;22.38;53.71;97238.97;5053357;28;20060;-59
2021/07/03 04:37:31;;;;;;;6.53;2.50;;;;;;;22.34;53.87;97236.78;5053090;28;20079;-59
2021/07/03 04:39:56;;;;;;;5.20;2.60;;;;;;;22.43;53.59;97238.34;5055108;28;20028;-59
2021/07/03 04:42:22;;;;;;;8.00;2.70;;;;;;;22.45;53.11;97228.06;5054014;28;20493;-59
2021/07/03 04:44:47;;;;;;;7.70;2.60;;;;;;;22.52;53.40;97231.66;5054021;28;20495;-59
2021/07/03 04:47:12;;;;;;;4.78;2.22;;;;;;;22.52;53.54;97236.31;5054084;28;20029;-58
2021/07/03 04:49:38;;;;;;;4.85;2.25;;;;;;;22.53;53.45;97240.75;5054537;28;20032;-59
2021/07/03 04:52:04;;;;;;;8.32;2.50;;;;;;;22.57;52.79;97244.78;5055330;28;20102;-59
2021/07/03 04:54:30;;;;;;;7.50;2.30;;;;;;;22.56;53.01;97248.56;5037272;28;20142;-59
2021/07/03 04:57:07;;;;;;;6.63;2.58;;;;;;;22.60;53.29;97259.97;5055325;28;20021;-60
2021/07/03 04:59:37;;;;;;;6.53;2.60;;;;;;;22.52;53.14;97264.56;5054023;28;20451;-59
2021/07/03 05:02:04;;;;;;;5.93;2.40;;;;;;;22.55;53.81;97264.16;5053909;28;20524;-60
2021/07/03 05:04:29;;;;;;;5.63;2.72;;;;;;;22.55;53.69;97264.16;5055037;28;20484;-59
2021/07/03 05:06:54;;;;;;;5.35;2.60;;;;;;;22.24;53.89;97273.59;5054627;28;20028;-59
2021/07/03 05:09:20;;;;;;;7.43;2.55;;;;;;;22.32;54.79;97266.28;5055016;28;20493;-59
2021/07/03 05:11:45;;;;;;;7.25;2.60;;;;;;;22.22;55.57;97272.97;5054970;28;20083;-60
2021/07/03 05:14:11;;;;;;;5.65;2.30;;;;;;;22.13;55.35;97263.22;5053716;28;20040;-59
2021/07/03 05:16:36;;;;;;;6.32;2.50;;;;;;;22.03;55.74;97266.31;5055134;28;20028;-59
2021/07/03 05:19:01;;;;;;;12.23;2.60;;;;;;;22.08;55.76;97280.22;5053626;28;20100;-59
2021/07/03 05:21:27;;;;;;;5.18;2.60;;;;;;;22.10;55.96;97285.53;5054756;28;20032;-59
2021/07/03 05:23:52;;;;;;;6.97;2.60;;;;;;;22.00;56.19;97279.53;5053605;28;20100;-59
2021/07/03 05:26:17;;;;;;;9.13;2.78;;;;;;;22.12;56.05;97285.31;5055122;28;20025;-58
2021/07/03 05:28:43;;;;;;;7.10;2.78;;;;;;;22.10;55.68;97273.69;5053630;28;20052;-60
2021/07/03 05:31:08;;;;;;;6.13;2.70;;;;;;;22.23;56.18;97276.53;5054473;28;20070;-59
2021/07/03 05:33:34;;;;;;;5.95;2.90;;;;;;;22.31;56.98;97281.03;5054472;28;20021;-61
2021/07/03 05:36:01;;;;;;;5.43;2.65;;;;;;;22.32;56.20;97280.81;5054919;28;20074;-60
2021/07/03 05:38:27;;;;;;;7.78;2.67;;;;;;;22.33;56.13;97273.47;5054477;28;20036;-60
2021/07/03 05:40:53;;;;;;;7.68;2.88;;;;;;;22.52;56.60;97271.94;5054534;28;20025;-60
2021/07/03 05:43:18;;;;;;;8.18;2.75;;;;;;;22.43;56.09;97278.63;5052633;28;20045;-60
2021/07/03 05:45:44;;;;;;;6.72;2.67;;;;;;;22.61;55.26;97278.09;5054490;28;20032;-60
2021/07/03 05:48:10;;;;;;;6.55;2.50;;;;;;;22.65;54.98;97273.88;5054246;28;20031;-60
2021/07/03 05:50:35;;;;;;;9.52;3.50;;;;;;;22.95;54.19;97273.63;5054246;28;20388;-60
2021/07/03 05:53:00;;;;;;;7.25;2.70;;;;;;;23.12;53.50;97271.41;5054083;28;20388;-60
2021/07/03 05:55:26;;;;;;;5.57;2.58;;;;;;;23.13;53.11;97278.56;5053871;28;20474;-60
2021/07/03 05:57:51;;;;;;;6.25;2.42;;;;;;;22.99;53.36;97281.25;5054091;28;20025;-60
2021/07/03 06:00:18;;;;;;;8.30;2.38;;;;;;;23.05;53.88;97285.09;5053992;28;20443;-60
2021/07/03 06:02:43;;;;;;;5.93;2.50;;;;;;;22.93;53.06;97281.22;5054317;28;20029;-60
2021/07/03 06:05:09;;;;;;;5.55;2.60;;;;;;;22.99;52.62;97274.91;5052715;28;20108;-60
2021/07/03 06:07:35;;;;;;;7.78;2.35;;;;;;;23.15;52.50;97268.25;5054000;28;20131;-60
2021/07/03 06:10:00;;;;;;;6.43;2.50;;;;;;;23.29;51.99;97278.25;5052701;28;20428;-61
2021/07/03 06:12:26;;;;;;;5.05;2.30;;;;;;;23.37;52.45;97283.53;5053881;28;20029;-62
2021/07/03 06:14:52;;;;;;;7.22;2.63;;;;;;;23.44;52.45;97280.81;5052610;28;20098;-60
2021/07/03 06:17:18;;;;;;;4.43;2.25;;;;;;;23.52;52.12;97288.00;5052284;28;20039;-60
2021/07/03 06:19:44;;;;;;;7.22;2.40;;;;;;;23.50;51.78;97282.69;5053823;28;20029;-59
2021/07/03 06:22:13;;;;;;;5.22;2.72;;;;;;;23.56;51.73;97292.88;5053244;28;20094;-60
2021/07/03 06:24:40;;;;;;;8.25;2.45;;;;;;;23.67;51.87;97285.09;5050678;28;20024;-60
2021/07/03 06:27:05;;;;;;;4.65;2.60;;;;;;;23.71;51.68;97283.59;5053163;28;20473;-60
2021/07/03 06:29:31;;;;;;;8.23;3.00;;;;;;;23.72;51.68;97280.66;5048055;28;20035;-60
2021/07/03 06:31:56;;;;;;;6.07;2.40;;;;;;;23.68;52.27;97287.63;5051667;28;20017;-59
2021/07/03 06:34:22;;;;;;;7.03;2.70;;;;;;;23.71;51.92;97280.84;5054584;28;20044;-59
2021/07/03 06:36:47;;;;;;;7.05;2.70;;;;;;;23.62;51.82;97291.19;5052852;28;20021;-59
2021/07/03 06:39:12;;;;;;;11.82;2.90;;;;;;;23.77;51.53;97288.28;5047740;28;20031;-60
2021/07/03 06:41:38;;;;;;;6.47;2.30;;;;;;;23.83;51.21;97300.31;5052014;28;20104;-60
2021/07/03 06:44:04;;;;;;;4.95;2.30;;;;;;;23.71;51.56;97292.69;5046940;28;20106;-60
2021/07/03 06:46:30;;;;;;;6.47;2.58;;;;;;;23.77;51.50;97302.00;5045988;28;20512;-62
2021/07/03 06:48:55;;;;;;;7.05;2.53;;;;;;;23.76;51.22;97304.94;5046090;28;20017;-61
2021/07/03 06:51:21;;;;;;;6.65;2.40;;;;;;;23.54;52.35;97305.97;5046954;28;20052;-60
2021/07/03 06:53:46;;;;;;;10.18;2.60;;;;;;;23.60;51.34;97308.91;5045497;28;20028;-60
2021/07/03 06:56:12;;;;;;;7.28;2.63;;;;;;;23.69;51.15;97316.75;5044322;28;20431;-61
2021/07/03 06:58:37;;;;;;;7.60;2.70;;;;;;;23.90;51.36;97309.44;5048265;28;20035;-60
2021/07/03 07:01:03;;;;;;;12.68;2.72;;;;;;;24.09;50.54;97301.41;5048489;28;20074;-60
2021/07/03 07:03:28;;;;;;;5.47;2.45;;;;;;;24.23;49.72;97301.19;5049299;28;20107;-60
2021/07/03 07:05:54;;;;;;;4.80;2.47;;;;;;;24.21;49.40;97302.47;5049063;28;20029;-60
2021/07/03 07:08:19;;;;;;;7.63;2.50;;;;;;;24.28;49.61;97297.84;5050076;28;20140;-60
2021/07/03 07:10:44;;;;;;;8.77;2.40;;;;;;;24.34;49.64;97299.72;5052801;28;20032;-60
2021/07/03 07:13:10;;;;;;;8.25;2.88;;;;;;;24.29;49.68;97294.03;5052324;28;20385;-61
2021/07/03 07:15:35;;;;;;;5.55;2.50;;;;;;;24.42;49.54;97292.31;5046358;28;20117;-60
2021/07/03 07:18:01;;;;;;;4.05;2.50;;;;;;;24.26;49.57;97294.44;5053365;28;20492;-60
2021/07/03 07:20:26;;;;;;;9.18;2.90;;;;;;;24.27;48.89;97287.88;5052215;28;20025;-60
2021/07/03 07:22:52;;;;;;;7.30;2.67;;;;;;;24.33;49.47;97289.81;5051983;28;20034;-76
2021/07/03 07:25:17;;;;;;;5.47;2.80;;;;;;;24.35;49.30;97279.41;5043687;28;20040;-64
2021/07/03 07:27:43;;;;;;;9.40;2.85;;;;;;;24.53;48.81;97280.66;5053515;28;20452;-64
2021/07/03 07:30:08;;;;;;;7.63;2.70;;;;;;;24.56;48.66;97288.50;5053996;28;20020;-65
2021/07/03 07:32:34;;;;;;;9.00;2.53;;;;;;;24.55;48.70;97286.81;5051282;28;20045;-64
2021/07/03 07:34:59;;;;;;;8.18;2.33;;;;;;;24.68;48.45;97291.44;5050186;28;20121;-64
2021/07/03 07:37:26;;;;;;;8.18;2.40;;;;;;;24.62;49.20;97292.28;5052226;28;20090;-63
2021/07/03 07:39:52;;;;;;;4.22;2.60;;;;;;;24.21;49.33;97300.59;5051300;28;20053;-63
2021/07/03 07:42:17;;;;;;;8.77;2.90;;;;;;;24.47;48.51;97303.53;5036208;28;20069;-64
2021/07/03 07:44:43;;;;;;;6.85;3.10;;;;;;;24.52;48.71;97312.81;5052076;28;20021;-64
2021/07/03 07:47:08;;;;;;;6.30;2.65;;;;;;;24.64;48.38;97314.94;5054077;28;20025;-64
2021/07/03 07:49:34;;;;;;;8.27;3.35;;;;;;;24.23;48.67;97316.84;5052145;28;20032;-64
2021/07/03 07:51:59;;;;;;;7.10;2.70;;;;;;;24.29;49.63;97323.41;5050596;28;20104;-64
2021/07/03 07:54:25;;;;;;;7.97;2.95;;;;;;;24.33;49.53;97321.91;5039187;28;20041;-64
2021/07/03 07:56:50;;;;;;;9.10;3.10;;;;;;;24.54;49.40;97318.94;5046899;28;20044;-64
2021/07/03 07:59:15;;;;;;;5.50;2.50;;;;;;;24.74;48.31;97313.44;5049612;28;20060;-65
2021/07/03 08:01:41;;;;;;;8.15;2.50;;;;;;;24.79;47.65;97314.72;5047490;28;20479;-64
2021/07/03 08:04:06;;;;;;;5.97;2.60;;;;;;;24.82;47.25;97315.09;5050805;28;20056;-64
2021/07/03 08:06:32;;;;;;;8.80;2.60;;;;;;;24.98;46.94;97321.22;5051316;28;20079;-61
2021/07/03 08:08:57;;;;;;;6.13;2.30;;;;;;;25.06;47.46;97319.06;5041625;28;20068;-65
2021/07/03 08:11:23;;;;;;;5.40;2.58;;;;;;;25.01;47.70;97323.53;5044746;28;20369;-64
2021/07/03 08:13:48;;;;;;;8.93;2.50;;;;;;;24.98;47.95;97323.97;5052027;28;20025;-63
2021/07/03 08:16:14;;;;;;;6.50;2.78;;;;;;;25.02;47.42;97327.97;5051960;28;20511;-65
2021/07/03 08:18:39;;;;;;;7.18;2.45;;;;;;;25.09;46.64;97319.69;5051795;28;20456;-64
2021/07/03 08:21:05;;;;;;;7.93;2.63;;;;;;;25.04;47.36;97317.59;5052052;28;20020;-63
2021/07/03 08:23:30;;;;;;;7.20;2.60;;;;;;;25.05;47.77;97324.78;5056038;28;20032;-62
2021/07/03 08:25:55;;;;;;;5.50;2.63;;;;;;;25.32;47.33;97324.69;5063903;28;20033;-62
2021/07/03 08:28:21;;;;;;;9.30;2.90;;;;;;;25.28;46.69;97328.94;5054305;28;20039;-62
2021/07/03 08:30:46;;;;;;;8.73;2.65;;;;;;;25.51;46.86;97323.78;5063748;28;20028;-62
2021/07/03 08:33:12;;;;;;;7.90;2.78;;;;;;;25.70;45.67;97318.38;5055385;28;20384;-62
2021/07/03 08:35:37;;;;;;;6.70;2.47;;;;;;;25.69;46.13;97323.03;5058340;28;20036;-62
2021/07/03 08:38:03;;;;;;;5.88;2.78;;;;;;;25.56;45.93;97320.34;5059340;28;20086;-63
2021/07/03 08:40:31;;;;;;;8.70;3.03;;;;;;;25.55;45.99;97321.44;5045578;28;20056;-62
2021/07/03 08:42:56;;;;;;;5.63;2.70;;;;;;;25.07;46.90;97319.91;5049714;28;20037;-62
2021/07/03 08:45:21;;;;;;;6.78;2.90;;;;;;;25.00;49.17;97316.31;5048976;28;20131;-63
2021/07/03 08:47:47;;;;;;;7.22;2.90;;;;;;;25.29;47.13;97314.13;5052932;28;20025;-62
2021/07/03 08:50:15;;;;;;;9.50;2.85;;;;;;;25.51;46.62;97315.53;5044912;28;20076;-62
2021/07/03 08:52:41;;;;;;;5.97;2.90;;;;;;;25.39;47.67;97314.53;5046602;28;20473;-62
2021/07/03 08:55:20;;;;;;;10.57;2.97;;;;;;;25.61;47.33;97311.44;5065565;28;20094;-62
2021/07/03 08:57:50;;;;;;;6.85;2.80;;;;;;;25.69;47.60;97313.94;5068899;28;20040;-61
2021/07/03 09:00:37;;;;;;;7.65;3.20;;;;;;;25.84;46.37;97317.25;5057566;28;20048;-61
2021/07/03 09:03:22;;;;;;;6.78;3.05;;;;;;;25.88;46.33;97314.88;5061643;28;20037;-62
2021/07/03 09:05:50;;;;;;;9.15;3.05;;;;;;;25.68;46.45;97315.88;5069749;28;20033;-62
2021/07/03 09:08:17;;;;;;;10.77;3.80;;;;;;;25.77;46.14;97315.59;5058358;28;20430;-62
2021/07/03 09:10:42;;;;;;;9.57;3.42;;;;;;;25.79;46.19;97313.44;5065747;28;20460;-62
2021/07/03 09:13:08;;;;;;;7.78;3.20;;;;;;;25.84;45.75;97316.38;5065761;28;20056;-62
2021/07/03 09:15:39;;;;;;;7.78;3.28;;;;;;;25.74;45.73;97311.38;5059289;28;20041;-62
2021/07/03 09:18:08;;;;;;;10.43;3.53;;;;;;;25.89;45.73;97303.63;5071387;28;20059;-61
2021/07/03 09:20:37;;;;;;;9.00;3.40;;;;;;;25.92;45.17;97304.25;5061277;28;20473;-62
2021/07/03 09:23:14;;;;;;;9.80;3.70;;;;;;;25.81;45.23;97300.31;5063122;28;20048;-62
2021/07/03 09:25:45;;;;;;;7.18;3.40;;;;;;;25.70;45.99;97310.13;5042336;28;20034;-62
2021/07/03 09:28:15;;;;;;;7.30;3.20;;;;;;;25.57;47.52;97308.28;5040817;28;20104;-62
2021/07/03 09:30:42;;;;;;;9.30;3.35;;;;;;;25.70;47.60;97308.19;5064215;28;20024;-62
2021/07/03 09:33:08;;;;;;;9.77;3.13;;;;;;;25.95;46.80;97306.56;5063750;28;20044;-62
2021/07/03 09:35:34;;;;;;;7.80;3.30;;;;;;;26.03;47.14;97309.06;5057244;28;20036;-62
2021/07/03 09:38:05;;;;;;;13.90;3.30;;;;;;;26.20;46.48;97299.22;5069027;28;20032;-61
2021/07/03 09:40:35;;;;;;;7.75;3.35;;;;;;;25.93;46.68;97295.75;5057551;28;20094;-62
2021/07/03 09:43:11;;;;;;;10.15;3.30;;;;;;;26.10;46.37;97285.09;5061413;28;20052;-62
2021/07/03 09:45:48;;;;;;;8.02;3.58;;;;;;;26.15;44.97;97278.88;5049612;28;20106;-62
2021/07/03 09:48:13;;;;;;;7.20;3.53;;;;;;;26.28;44.89;97276.00;5050923;28;20029;-62
2021/07/03 09:50:40;;;;;;;10.32;3.60;;;;;;;26.42;45.09;97282.25;5048188;28;20016;-61
2021/07/03 09:53:07;;;;;;;7.20;3.55;;;;;;;26.52;44.96;97268.81;5056114;28;20036;-62
2021/07/03 09:55:35;;;;;;;10.48;3.83;;;;;;;26.58;44.41;97267.03;5054681;28;20063;-62
2021/07/03 09:58:00;;;;;;;9.52;3.88;;;;;;;25.84;46.04;97264.03;5044969;28;20025;-62
2021/07/03 10:00:26;;;;;;;8.95;3.80;;;;;;;26.13;45.85;97259.81;5043603;28;20023;-62
2021/07/03 10:02:52;;;;;;;9.25;3.88;;;;;;;26.39;45.38;97249.63;5046227;28;20029;-62
2021/07/03 10:05:19;;;;;;;7.65;3.60;;;;;;;26.44;45.45;97258.03;5042982;28;20029;-62
2021/07/03 10:07:47;;;;;;;7.30;3.38;;;;;;;26.60;45.16;97258.53;5040637;28;20431;-62
2021/07/03 10:10:17;;;;;;;9.95;3.67;;;;;;;26.59;44.61;97254.94;5050843;28;20021;-61
2021/07/03 10:12:57;;;;;;;6.45;3.40;;;;;;;26.48;45.39;97259.28;5049278;28;20129;-61
2021/07/03 10:15:32;;;;;;;7.75;3.63;;;;;;;26.56;45.17;97260.91;5055785;28;20033;-61
2021/07/03 10:18:14;;;;;;;8.90;3.30;;;;;;;26.52;45.11;97257.78;5055701;28;20033;-62
2021/07/03 10:20:40;;;;;;;8.75;3.97;;;;;;;26.57;44.57;97249.63;5068796;28;20046;-62
2021/07/03 10:23:06;;;;;;;8.60;3.55;;;;;;;26.66;44.53;97252.13;5061935;28;20035;-62
2021/07/03 10:25:40;;;;;;;6.38;3.58;;;;;;;26.57;45.26;97249.63;5068506;28;20029;-62
2021/07/03 10:28:08;;;;;;;7.03;3.10;;;;;;;26.79;44.15;97242.88;5055688;28;20052;-62
2021/07/03 10:30:35;;;;;;;9.25;3.40;;;;;;;26.89;44.12;97241.25;5047243;28;20036;-62
2021/07/03 10:33:12;;;;;;;8.05;2.92;;;;;;;27.09;43.63;97242.09;5048567;28;20043;-62
2021/07/03 10:35:51;;;;;;;7.18;3.53;;;;;;;27.04;43.13;97240.00;5047811;28;20025;-62
2021/07/03 10:38:27;;;;;;;12.38;3.65;;;;;;;27.03;43.80;97252.13;5049322;28;20027;-62
2021/07/03 10:41:14;;;;;;;8.77;4.07;;;;;;;26.84;42.91;97240.25;5045809;28;20036;-62
2021/07/03 10:43:47;;;;;;;11.23;3.75;;;;;;;26.21;43.91;97245.75;5055148;28;20051;-62
2021/07/03 10:46:29;;;;;;;8.48;3.80;;;;;;;26.17;44.92;97243.69;5040819;28;20060;-62
2021/07/03 10:48:56;;;;;;;12.18;3.60;;;;;;;26.01;45.41;97247.81;5063125;28;20021;-62
2021/07/03 10:51:28;;;;;;;7.22;3.42;;;;;;;26.04;44.76;97239.97;5061017;28;20024;-62
2021/07/03 10:54:24;;;;;;;6.40;3.63;;;;;;;26.11;44.78;97247.31;5049844;28;20064;-62
2021/07/03 10:57:01;;;;;;;8.35;3.72;;;;;;;26.62;43.78;97242.59;5060267;28;20032;-62
2021/07/03 10:59:29;;;;;;;9.55;3.47;;;;;;;26.80;41.65;97239.88;5052771;28;20024;-62
2021/07/03 11:02:05;;;;;;;9.20;4.07;;;;;;;26.43;41.86;97231.56;5053029;28;20040;-62
2021/07/03 11:04:45;;;;;;;12.73;4.10;;;;;;;26.85;42.15;97240.03;5036992;28;20036;-62
2021/07/03 11:07:12;;;;;;;7.65;3.85;;;;;;;26.67;40.73;97228.97;5033465;28;20055;-63
2021/07/03 11:09:38;;;;;;;6.72;3.53;;;;;;;26.25;41.48;97229.59;5031762;28;20099;-64
2021/07/03 11:12:18;;;;;;;11.63;3.45;;;;;;;26.44;42.81;97216.69;5033370;28;20473;-64
2021/07/03 11:15:03;;;;;;;6.53;3.17;;;;;;;26.96;41.60;97221.03;5031187;28;20103;-64
2021/07/03 11:17:29;;;;;;;9.60;4.22;;;;;;;26.51;42.10;97224.88;5031224;28;20035;-63
2021/07/03 11:19:55;;;;;;;8.35;3.70;;;;;;;26.17;42.90;97210.59;5032612;28;20448;-63
2021/07/03 11:22:25;;;;;;;7.10;3.30;;;;;;;26.82;42.23;97210.16;5033083;28;20030;-63
2021/07/03 11:24:58;;;;;;;6.03;3.08;;;;;;;27.19;41.20;97207.34;5031743;28;20370;-63
2021/07/03 11:27:38;;;;;;;6.47;3.17;;;;;;;27.32;41.27;97197.19;5033230;28;20073;-64
2021/07/03 11:30:06;;;;;;;7.18;3.20;;;;;;;27.55;41.68;97201.97;5051732;28;20124;-63